createdAt,value
2018-01-20T00:00:04.208Z,73.67
2018-01-20T00:00:44.937Z,74.18
2018-01-20T00:01:25.180Z,73.04
2018-01-20T00:02:05.551Z,73.33
2018-01-20T00:02:46.006Z,73.33
2018-01-20T00:03:26.758Z,72.95
2018-01-20T00:04:07.433Z,72.56
2018-01-20T00:04:48.091Z,72.91
2018-01-20T00:05:28.502Z,72.85
2018-01-20T00:06:09.002Z,73.23
2018-01-20T00:06:49.453Z,73.23
2018-01-20T00:07:29.750Z,73.42
2018-01-20T00:08:10.339Z,73.19
2018-01-20T00:08:50.786Z,72.81
2018-01-20T00:09:31.171Z,73.29
2018-01-20T00:10:11.969Z,73.48
2018-01-20T00:10:52.411Z,73.1
2018-01-20T00:11:32.859Z,73.38
2018-01-20T00:12:13.507Z,73.19
2018-01-20T00:12:53.882Z,73.67
2018-01-20T00:13:34.778Z,74.15
2018-01-20T00:14:15.211Z,73.86
2018-01-20T00:14:55.603Z,73.76
2018-01-20T00:15:36.547Z,73.38
2018-01-20T00:16:17.162Z,73.1
2018-01-20T00:16:57.519Z,73.1
2018-01-20T00:17:37.928Z,73.76
2018-01-20T00:18:18.339Z,73.76
2018-01-20T00:18:58.791Z,73.96
2018-01-20T00:19:39.205Z,74.24
2018-01-20T00:20:19.651Z,74.62
2018-01-20T00:20:59.962Z,74.15
2018-01-20T00:21:40.534Z,74.24
2018-01-20T00:22:20.885Z,73.96
2018-01-20T00:23:01.304Z,74.15
2018-01-20T00:23:41.826Z,74.15
2018-01-20T00:24:22.162Z,73.96
2018-01-20T00:25:02.572Z,74.15
2018-01-20T00:25:42.991Z,74.15
2018-01-20T00:26:23.772Z,74.05
2018-01-20T00:27:04.156Z,73.96
2018-01-20T00:27:44.677Z,73.96
2018-01-20T00:28:25.007Z,73.96
2018-01-20T00:29:05.498Z,73.86
2018-01-20T00:29:45.793Z,73.86
2018-01-20T00:30:26.210Z,73.86
2018-01-20T00:31:06.687Z,74.15
2018-01-20T00:31:47.075Z,74.43
2018-01-20T00:32:27.441Z,74.05
2018-01-20T00:33:07.798Z,74.33
2018-01-20T00:33:48.818Z,74.71
2018-01-20T00:34:28.938Z,74.62
2018-01-20T00:35:09.355Z,74.52
2018-01-20T00:35:49.736Z,74.9
2018-01-20T00:36:30.157Z,74.9
2018-01-20T00:37:10.548Z,75.09
2018-01-20T00:37:50.972Z,74.81
2018-01-20T00:38:31.374Z,74.52
2018-01-20T00:39:11.950Z,74.62
2018-01-20T00:39:52.250Z,74.81
2018-01-20T00:40:32.690Z,74.62
2018-01-20T00:41:13.309Z,74.9
2018-01-20T00:41:53.847Z,74.9
2018-01-20T00:42:34.117Z,74.81
2018-01-20T00:43:14.895Z,74.71
2018-01-20T00:45:14.211Z,75.09
2018-01-20T00:45:55.166Z,74.9
2018-01-20T00:46:35.502Z,74.87
2018-01-20T00:47:15.902Z,75.85
2018-01-20T00:47:56.310Z,75.67
2018-01-20T00:48:36.751Z,75.85
2018-01-20T00:49:17.163Z,76.01
2018-01-20T00:49:57.747Z,76.29
2018-01-20T00:50:38.059Z,75.81
2018-01-20T00:51:18.414Z,75.85
2018-01-20T00:51:58.840Z,75.15
2018-01-20T00:52:39.191Z,75.47
2018-01-20T00:53:19.595Z,75.19
2018-01-20T00:53:59.989Z,75
2018-01-20T00:54:40.395Z,75.09
2018-01-20T00:55:20.853Z,76.14
2018-01-20T00:56:02.225Z,75.91
2018-01-20T00:56:42.430Z,75.81
2018-01-20T00:57:23.371Z,76.01
2018-01-20T00:58:03.659Z,76.01
2018-01-20T00:58:44.047Z,75.85
2018-01-20T00:59:24.448Z,76.04
2018-01-20T01:00:04.958Z,76.01
2018-01-20T01:00:45.215Z,75.05
2018-01-20T01:01:25.630Z,76.2
2018-01-20T01:02:06.124Z,76.29
2018-01-20T01:02:46.455Z,76.71
2018-01-20T01:03:27.011Z,76.39
2018-01-20T01:04:07.304Z,75.81
2018-01-20T01:04:47.696Z,76.23
2018-01-20T01:07:02.665Z,75.67
2018-01-20T01:07:51.398Z,76.01
2018-01-20T01:08:37.656Z,75.91
2018-01-20T01:09:18.875Z,75.81
2018-01-20T01:09:59.317Z,76.76
2018-01-20T01:10:39.672Z,76.57
2018-01-20T01:11:20.133Z,76.39
2018-01-20T01:12:00.488Z,76.2
2018-01-20T01:12:41.009Z,76.2
2018-01-20T01:13:21.492Z,76.39
2018-01-20T01:14:01.952Z,76.67
2018-01-20T01:14:42.342Z,76.23
2018-01-20T01:15:22.654Z,75.95
2018-01-20T01:16:03.056Z,76.01
2018-01-20T01:16:43.562Z,76.01
2018-01-20T01:17:24.203Z,76.01
2018-01-20T01:18:04.342Z,76.14
2018-01-20T01:18:44.799Z,75.85
2018-01-20T01:19:25.225Z,75.76
2018-01-20T01:20:05.989Z,75.81
2018-01-20T01:20:46.801Z,75.95
2018-01-20T01:21:26.740Z,75.62
2018-01-20T01:22:07.165Z,76.52
2018-01-20T01:22:47.544Z,76.32
2018-01-20T01:25:02.130Z,76.04
2018-01-20T01:25:41.792Z,76.14
2018-01-20T01:26:22.214Z,75.67
2018-01-20T01:27:02.607Z,75.85
2018-01-20T01:27:43.178Z,75.09
2018-01-20T01:28:23.428Z,76.04
2018-01-20T01:29:03.818Z,75.28
2018-01-20T01:29:44.185Z,75.76
2018-01-20T01:30:24.727Z,75.76
2018-01-20T01:31:05.317Z,75.76
2018-01-20T01:31:45.702Z,76.14
2018-01-20T01:32:26.139Z,75.57
2018-01-20T01:33:06.537Z,75.76
2018-01-20T01:33:46.998Z,76.04
2018-01-20T01:34:27.679Z,76.14
2018-01-20T01:35:08.102Z,76.8
2018-01-20T01:35:48.434Z,76.61
2018-01-20T01:36:28.888Z,77.37
2018-01-20T01:37:09.529Z,77.56
2018-01-20T01:37:49.903Z,77.94
2018-01-20T01:38:30.282Z,78.03
2018-01-20T01:39:11.170Z,77.94
2018-01-20T01:39:51.559Z,78.32
2018-01-20T01:40:32.221Z,78.03
2018-01-20T01:41:12.625Z,78.32
2018-01-20T01:41:52.977Z,77.94
2018-01-20T01:42:33.394Z,78.32
2018-01-20T01:43:13.787Z,78.03
2018-01-20T01:43:54.236Z,77.84
2018-01-20T01:44:34.558Z,78.42
2018-01-20T01:45:15.310Z,77.84
2018-01-20T01:45:55.802Z,78.51
2018-01-20T01:46:36.209Z,77.84
2018-01-20T01:47:16.691Z,78.32
2018-01-20T01:47:57.428Z,78.32
2018-01-20T01:48:37.838Z,78.51
2018-01-20T01:50:41.117Z,78.56
2018-01-20T01:51:23.403Z,78.19
2018-01-20T01:52:06.657Z,78.32
2018-01-20T01:52:49.792Z,78.8
2018-01-20T01:53:33.179Z,78.32
2018-01-20T01:54:13.547Z,78.42
2018-01-20T01:54:54.112Z,77.84
2018-01-20T01:55:38.628Z,77.37
2018-01-20T01:56:19.441Z,77.09
2018-01-20T01:57:00.027Z,76.99
2018-01-20T01:57:40.450Z,76.99
2018-01-20T01:58:20.822Z,77.18
2018-01-20T01:59:01.300Z,76.99
2018-01-20T02:00:54.739Z,77.37
2018-01-20T02:01:36.551Z,77.09
2018-01-20T02:02:16.916Z,77.18
2018-01-20T02:02:57.153Z,77.28
2018-01-20T02:03:37.546Z,77.66
2018-01-20T02:04:18.050Z,77.84
2018-01-20T02:04:58.351Z,77.94
2018-01-20T02:05:38.761Z,77.47
2018-01-20T02:06:19.095Z,77.94
2018-01-20T02:06:59.537Z,78.13
2018-01-20T02:07:40.371Z,77.47
2018-01-20T02:08:20.622Z,77.71
2018-01-20T02:09:01.095Z,78.38
2018-01-20T02:09:41.439Z,78.42
2018-01-20T02:10:21.865Z,78.23
2018-01-20T02:11:02.299Z,78.23
2018-01-20T02:11:42.907Z,78.32
2018-01-20T02:12:23.328Z,78.32
2018-01-20T02:13:03.758Z,78.03
2018-01-20T02:13:44.500Z,77.09
2018-01-20T02:14:24.794Z,76.99
2018-01-20T02:15:05.417Z,77.56
2018-01-20T02:15:45.762Z,77.37
2018-01-20T02:16:26.234Z,77.09
2018-01-20T02:17:06.554Z,77.09
2018-01-20T02:17:47.214Z,76.61
2018-01-20T02:18:27.627Z,76.8
2018-01-20T02:19:08.094Z,76.9
2018-01-20T02:19:48.540Z,76.8
2018-01-20T02:20:28.940Z,76.71
2018-01-20T02:21:09.371Z,76.71
2018-01-20T02:21:49.928Z,75.95
2018-01-20T02:22:30.231Z,76.32
2018-01-20T02:23:10.710Z,76.32
2018-01-20T02:23:51.154Z,76.42
2018-01-20T02:24:31.888Z,76.42
2018-01-20T02:25:11.998Z,76.23
2018-01-20T02:25:52.469Z,76.14
2018-01-20T02:26:32.943Z,76.32
2018-01-20T02:27:13.483Z,75.67
2018-01-20T02:27:53.989Z,76.04
2018-01-20T02:28:34.379Z,75.95
2018-01-20T02:29:15.195Z,75.67
2018-01-20T02:29:55.446Z,75.85
2018-01-20T02:30:35.969Z,76.32
2018-01-20T02:31:16.353Z,76.71
2018-01-20T02:33:31.226Z,76.32
2018-01-20T02:34:13.411Z,76.52
2018-01-20T02:34:53.932Z,75.85
2018-01-20T02:35:34.199Z,76.23
2018-01-20T02:36:14.620Z,75.85
2018-01-20T02:36:55.008Z,76.23
2018-01-20T02:37:35.698Z,76.9
2018-01-20T02:38:16.063Z,76.61
2018-01-20T02:38:56.563Z,76.42
2018-01-20T02:39:36.909Z,76.9
2018-01-20T02:40:17.317Z,76.32
2018-01-20T02:40:57.770Z,76.23
2018-01-20T02:41:38.135Z,75.95
2018-01-20T02:42:18.562Z,76.23
2018-01-20T02:42:58.976Z,75.95
2018-01-20T02:43:39.397Z,75.95
2018-01-20T02:45:39.106Z,76.08
2018-01-20T02:46:22.188Z,75.76
2018-01-20T02:47:02.967Z,75.67
2018-01-20T02:47:43.968Z,75.47
2018-01-20T02:48:25.100Z,76.14
2018-01-20T02:49:05.221Z,76.61
2018-01-20T02:49:45.660Z,75.95
2018-01-20T02:50:25.919Z,76.42
2018-01-20T02:51:06.345Z,75.85
2018-01-20T02:51:46.732Z,76.42
2018-01-20T02:52:27.922Z,76.71
2018-01-20T02:53:08.164Z,76.23
2018-01-20T02:53:49.135Z,75.85
2018-01-20T02:54:29.571Z,75.85
2018-01-20T02:55:10.027Z,76.46
2018-01-20T02:55:50.540Z,75.76
2018-01-20T02:56:31.162Z,75.67
2018-01-20T02:57:11.518Z,75.7
2018-01-20T02:57:51.919Z,75.99
2018-01-20T02:59:41.386Z,74.85
2018-01-20T03:00:24.014Z,75.23
2018-01-20T03:01:04.406Z,75.13
2018-01-20T03:03:24.105Z,74.75
2018-01-20T03:04:06.843Z,75.23
2018-01-20T03:04:47.593Z,75.13
2018-01-20T03:05:28.108Z,75.32
2018-01-20T03:06:08.603Z,75.13
2018-01-20T03:06:49.040Z,74.94
2018-01-20T03:07:29.556Z,75.04
2018-01-20T03:08:09.979Z,75.23
2018-01-20T03:08:50.690Z,74.9
2018-01-20T03:09:31.227Z,75.32
2018-01-20T03:11:39.866Z,75.13
2018-01-20T03:13:34.487Z,75.67
2018-01-20T03:14:15.323Z,75.95
2018-01-20T03:14:55.700Z,76.23
2018-01-20T03:15:36.326Z,75.76
2018-01-20T03:16:16.784Z,75.95
2018-01-20T03:16:57.087Z,76.14
2018-01-20T03:17:37.522Z,75.85
2018-01-20T03:18:18.221Z,75.95
2018-01-20T03:18:59.133Z,76.04
2018-01-20T03:19:39.531Z,76.42
2018-01-20T03:20:19.914Z,76.61
2018-01-20T03:21:00.341Z,76.32
2018-01-20T03:21:40.808Z,75.95
2018-01-20T03:22:21.539Z,75.85
2018-01-20T03:23:02.613Z,75.57
2018-01-20T03:23:43.993Z,76.18
2018-01-20T03:24:24.811Z,76.04
2018-01-20T03:25:05.132Z,75.19
2018-01-20T03:25:46.092Z,75.13
2018-01-20T03:26:26.459Z,75.28
2018-01-20T03:27:08.339Z,75.19
2018-01-20T03:27:48.850Z,75.85
2018-01-20T03:28:29.901Z,75.85
2018-01-20T03:29:10.216Z,75.67
2018-01-20T03:29:50.693Z,76.23
2018-01-20T03:30:30.978Z,76.23
2018-01-20T03:31:11.364Z,76.04
2018-01-20T03:31:51.845Z,75.57
2018-01-20T03:32:32.325Z,76.14
2018-01-20T03:33:12.679Z,75.76
2018-01-20T03:33:53.158Z,76.04
2018-01-20T03:34:33.849Z,76.42
2018-01-20T03:35:14.349Z,76.52
2018-01-20T03:35:54.849Z,76.32
2018-01-20T03:36:35.281Z,76.52
2018-01-20T03:37:15.731Z,77.18
2018-01-20T03:37:56.202Z,76.99
2018-01-20T03:39:54.832Z,76.8
2018-01-20T03:40:35.512Z,77.18
2018-01-20T03:41:15.855Z,77.18
2018-01-20T03:41:56.199Z,76.71
2018-01-20T03:42:36.645Z,76.9
2018-01-20T03:43:17.393Z,77.37
2018-01-20T03:43:58.034Z,77.09
2018-01-20T03:44:38.381Z,77.84
2018-01-20T03:45:19.242Z,77.18
2018-01-20T03:45:59.734Z,77.28
2018-01-20T03:46:40.141Z,77.84
2018-01-20T03:47:21.536Z,77.56
2018-01-20T03:48:02.091Z,77.09
2018-01-20T03:48:42.578Z,77.18
2018-01-20T03:49:22.958Z,76.9
2018-01-20T03:50:03.552Z,76.99
2018-01-20T03:50:43.905Z,77.37
2018-01-20T03:51:24.355Z,77.18
2018-01-20T03:52:04.712Z,76.99
2018-01-20T03:52:45.197Z,76.52
2018-01-20T03:53:25.658Z,76.9
2018-01-20T03:54:06.057Z,77.09
2018-01-20T03:54:46.471Z,77.18
2018-01-20T03:55:26.866Z,76.99
2018-01-20T03:56:07.376Z,76.9
2018-01-20T03:56:47.899Z,77.09
2018-01-20T03:57:28.876Z,76.86
2018-01-20T03:58:08.754Z,76.8
2018-01-20T03:58:49.201Z,77.37
2018-01-20T03:59:29.664Z,77.75
2018-01-20T04:00:10.243Z,76.71
2018-01-20T04:00:50.892Z,76.8
2018-01-20T04:01:31.110Z,77.37
2018-01-20T04:02:11.414Z,77.28
2018-01-20T04:44:34.378Z,80.24
2018-01-20T04:45:22.244Z,80.52
2018-01-20T04:47:26.937Z,80.9
2018-01-20T04:50:32.487Z,81.27
2018-01-20T04:51:27.648Z,80.99
2018-01-20T04:52:00.520Z,81.66
2018-01-20T04:52:41.126Z,81.66
2018-01-20T04:53:21.427Z,81.66
2018-01-20T04:54:01.817Z,80.99
2018-01-20T04:54:42.308Z,81.47
2018-01-20T04:55:22.634Z,80.8
2018-01-20T04:56:03.112Z,80.62
2018-01-20T04:56:43.699Z,80.65
2018-01-20T04:57:23.984Z,79.9
2018-01-20T04:58:04.239Z,79.42
2018-01-20T04:58:44.742Z,78.75
2018-01-20T04:59:25.083Z,78.75
2018-01-20T05:00:05.598Z,79.23
2018-01-20T05:00:45.952Z,78.66
2018-01-20T05:04:09.271Z,79
2018-01-20T05:05:58.763Z,79.23
2018-01-20T05:09:35.777Z,78.28
2018-01-20T05:10:20.382Z,78
2018-01-20T05:11:00.647Z,77.62
2018-01-20T05:11:41.361Z,77.71
2018-01-20T05:12:21.916Z,77.05
2018-01-20T05:13:02.058Z,77.24
2018-01-20T05:13:42.506Z,77.81
2018-01-20T05:14:22.841Z,77.05
2018-01-20T05:15:03.259Z,77.05
2018-01-20T05:15:43.686Z,77.05
2018-01-20T05:16:24.037Z,77.43
2018-01-20T05:17:04.520Z,78.09
2018-01-20T05:17:45.049Z,78.28
2018-01-20T05:18:25.317Z,78.38
2018-01-20T05:19:05.979Z,78
2018-01-20T05:19:46.251Z,77.56
2018-01-20T05:20:26.825Z,76.9
2018-01-20T05:21:07.016Z,75.67
2018-01-20T05:21:47.823Z,75.81
2018-01-20T05:22:27.897Z,76.76
2018-01-20T05:23:08.581Z,76.67
2018-01-20T05:23:48.977Z,76.57
2018-01-20T05:24:29.431Z,76.23
2018-01-20T05:25:09.869Z,76.48
2018-01-20T05:25:50.282Z,76.95
2018-01-20T05:26:30.675Z,76.95
2018-01-20T05:27:11.547Z,77.09
2018-01-20T05:27:51.608Z,76.95
2018-01-20T05:28:32.124Z,76.39
2018-01-20T05:29:12.562Z,76.1
2018-01-20T05:29:53.043Z,76.48
2018-01-20T05:30:33.500Z,77.33
2018-01-20T05:31:13.960Z,77.33
2018-01-20T05:31:54.550Z,77.62
2018-01-20T05:32:34.701Z,77.24
2018-01-20T05:33:15.167Z,77.14
2018-01-20T05:33:55.500Z,78
2018-01-20T05:43:10.726Z,77.81
2018-01-20T05:43:58.088Z,78.19
2018-01-20T05:45:59.082Z,77.14
2018-01-20T05:46:52.601Z,77.71
2018-01-20T05:47:49.482Z,77.62
2018-01-20T05:48:43.147Z,77.43
2018-01-20T05:49:37.397Z,77.71
2018-01-20T05:50:31.447Z,77.52
2018-01-20T05:51:24.059Z,77.9
2018-01-20T05:52:16.471Z,78.28
2018-01-20T05:53:09.688Z,78.34
2018-01-20T05:54:03.442Z,78.81
2018-01-20T05:54:56.460Z,78.34
2018-01-20T05:55:48.836Z,78.53
2018-01-20T05:56:42.383Z,78.81
2018-01-20T05:57:35.605Z,78.81
2018-01-20T05:58:29.837Z,79.28
2018-01-20T05:59:22.137Z,79.76
2018-01-20T06:00:14.390Z,79.76
2018-01-20T06:01:07.220Z,80.14
2018-01-20T06:01:59.391Z,80.24
2018-01-20T06:02:51.471Z,79.85
2018-01-20T06:03:44.037Z,79.76
2018-01-20T06:04:36.422Z,79.85
2018-01-20T06:05:29.002Z,80.04
2018-01-20T06:06:21.488Z,79.95
2018-01-20T06:07:13.930Z,79.28
2018-01-20T06:08:06.165Z,79.95
2018-01-20T06:08:58.819Z,80.24
2018-01-20T06:09:51.299Z,80.24
2018-01-20T06:10:44.142Z,80.9
2018-01-20T06:11:37.899Z,80.43
2018-01-20T06:12:31.621Z,80.99
2018-01-20T06:13:24.493Z,80.48
2018-01-20T06:14:17.593Z,80.76
2018-01-20T06:15:10.373Z,80.95
2018-01-20T06:16:02.881Z,80.95
2018-01-20T06:16:55.835Z,81.14
2018-01-20T06:17:49.897Z,80.76
2018-01-20T06:18:43.094Z,80.48
2018-01-20T06:19:37.361Z,80.95
2018-01-20T06:20:31.041Z,81.81
2018-01-20T06:21:23.358Z,81.52
2018-01-20T06:22:15.812Z,82.18
2018-01-20T06:23:08.628Z,83
2018-01-20T06:24:04.410Z,83.18
2018-01-20T06:24:56.881Z,83.75
2018-01-20T06:25:50.236Z,83.85
2018-01-20T06:26:42.913Z,83.56
2018-01-20T06:27:35.407Z,83.37
2018-01-20T06:28:30.421Z,83.66
2018-01-20T06:29:23.632Z,84.32
2018-01-20T06:30:16.353Z,84.42
2018-01-20T06:31:08.449Z,84.23
2018-01-20T06:32:01.571Z,84.7
2018-01-20T06:32:54.295Z,84.61
2018-01-20T06:33:48.392Z,84.42
2018-01-20T06:34:40.563Z,85.36
2018-01-20T06:35:33.254Z,85.36
2018-01-20T06:36:26.821Z,84.99
2018-01-20T06:37:19.813Z,84.99
2018-01-20T06:38:12.523Z,84.89
2018-01-20T06:39:05.929Z,85.36
2018-01-20T06:39:58.384Z,85.08
2018-01-20T06:40:50.935Z,85.27
2018-01-20T06:41:44.944Z,85.93
2018-01-20T06:42:37.644Z,85.65
2018-01-20T06:43:31.422Z,85.84
2018-01-20T06:44:23.958Z,85.84
2018-01-20T06:45:19.976Z,86.41
2018-01-20T06:46:14.473Z,86.03
2018-01-20T06:47:09.902Z,86.41
2018-01-20T06:48:07.501Z,85.65
2018-01-20T06:49:08.190Z,86.03
2018-01-20T06:50:04.172Z,86.22
2018-01-20T06:51:04.166Z,86.22
2018-01-20T06:51:58.938Z,86.12
2018-01-20T06:52:51.831Z,86.79
2018-01-20T06:53:48.272Z,86.69
2018-01-20T06:54:42.454Z,86.79
2018-01-20T06:55:38.642Z,85.84
2018-01-20T06:56:34.418Z,86.69
2018-01-20T06:57:26.682Z,86.79
2018-01-20T06:58:21.374Z,85.93
2018-01-20T06:59:16.068Z,85.84
2018-01-20T07:00:10.822Z,86.12
2018-01-20T07:01:03.937Z,86.22
2018-01-20T07:01:59.016Z,85.36
2018-01-20T07:02:53.988Z,85.17
2018-01-20T07:07:13.462Z,83.37
2018-01-20T07:08:11.811Z,84.61
2018-01-20T07:09:04.494Z,83.28
2018-01-20T07:10:02.942Z,83.28
2018-01-20T07:11:00.275Z,83.37
2018-01-20T07:11:56.369Z,83.37
2018-01-20T07:12:54.346Z,83.66
2018-01-20T07:14:06.897Z,84.32
2018-01-20T07:14:59.868Z,84.7
2018-01-20T07:15:55.270Z,84.8
2018-01-20T07:16:55.324Z,85.17
2018-01-20T07:18:00.831Z,85.27
2018-01-20T07:18:57.964Z,84.89
2018-01-20T07:24:12.130Z,86.03
2018-01-20T10:49:10.100Z,89.72
2018-01-20T10:49:50.874Z,89.34
2018-01-20T10:50:32.953Z,88.48
2018-01-20T10:51:16.755Z,88.01
2018-01-20T10:51:58.597Z,87.63
2018-01-20T10:52:39.115Z,87.06
2018-01-20T10:53:19.458Z,87.82
2018-01-20T10:54:00.131Z,87.35
2018-01-20T10:54:41.913Z,87.45
2018-01-20T10:55:22.442Z,86.78
2018-01-20T10:56:04.070Z,87.16
2018-01-20T10:56:45.828Z,86.87
2018-01-20T10:57:26.802Z,87.06
2018-01-20T10:58:08.044Z,87.25
2018-01-20T10:58:48.988Z,87.2
2018-01-20T10:59:29.402Z,87.01
2018-01-20T11:00:09.828Z,87.2
2018-01-20T11:00:50.263Z,87.01
2018-01-20T11:01:30.592Z,87.01
2018-01-20T11:02:11.072Z,86.54
2018-01-20T11:02:51.440Z,85.97
2018-01-20T11:03:31.851Z,85.49
2018-01-20T11:04:12.293Z,85.3
2018-01-20T11:04:52.711Z,84.83
2018-01-20T11:05:33.073Z,84.83
2018-01-20T11:06:13.483Z,85.4
2018-01-20T11:06:53.851Z,85.3
2018-01-20T11:07:34.407Z,85.21
2018-01-20T11:08:14.835Z,85.97
2018-01-20T11:08:55.200Z,86.16
2018-01-20T11:09:35.544Z,86.07
2018-01-20T11:10:15.987Z,86.35
2018-01-20T11:10:56.371Z,86.07
2018-01-20T11:11:36.811Z,86.16
2018-01-20T11:12:17.203Z,85.97
2018-01-20T11:12:57.792Z,85.49
2018-01-20T11:13:38.146Z,85.3
2018-01-20T11:14:18.567Z,85.3
2018-01-20T11:14:59.013Z,84.92
2018-01-20T11:15:39.459Z,84.64
2018-01-20T11:16:19.919Z,84.26
2018-01-20T11:17:00.259Z,84.83
2018-01-20T11:17:40.691Z,84.83
2018-01-20T11:18:21.134Z,84.83
2018-01-20T11:19:01.502Z,84.74
2018-01-20T11:19:41.935Z,84.36
2018-01-20T11:20:22.423Z,84.55
2018-01-20T11:21:02.746Z,84.83
2018-01-20T11:21:43.172Z,84.64
2018-01-20T11:22:23.590Z,85.3
2018-01-20T11:23:04.127Z,84.36
2018-01-20T11:23:44.467Z,83.97
2018-01-20T11:24:24.902Z,84.17
2018-01-20T11:25:05.302Z,84.36
2018-01-20T11:25:45.728Z,84.17
2018-01-20T11:26:26.220Z,83.5
2018-01-20T11:27:06.689Z,83.69
2018-01-20T11:27:47.101Z,83.69
2018-01-20T11:28:27.520Z,83.78
2018-01-20T11:29:07.969Z,83.59
2018-01-20T11:29:48.352Z,83.31
2018-01-20T11:30:28.848Z,83.31
2018-01-20T11:31:09.285Z,83.31
2018-01-20T11:31:49.698Z,83.69
2018-01-20T11:32:30.268Z,84.17
2018-01-20T11:33:10.725Z,84.26
2018-01-20T11:33:51.113Z,84.36
2018-01-20T11:34:31.530Z,85.49
2018-01-20T11:35:11.902Z,85.49
2018-01-20T11:35:52.273Z,84.64
2018-01-20T11:36:32.677Z,84.55
2018-01-20T11:37:13.085Z,84.26
2018-01-20T11:37:54.455Z,84.36
2018-01-20T11:38:36.656Z,84.36
2018-01-20T11:39:18.616Z,83.97
2018-01-20T11:39:59.697Z,83.59
2018-01-20T11:40:40.521Z,84.26
2018-01-20T11:41:21.645Z,84.36
2018-01-20T11:42:02.544Z,84.74
2018-01-20T11:42:42.531Z,84.55
2018-01-20T11:43:22.992Z,84.36
2018-01-20T11:44:03.372Z,84.55
2018-01-20T11:44:58.675Z,85.3
2018-01-20T11:45:39.065Z,84.83
2018-01-20T11:46:19.521Z,84.26
2018-01-20T11:46:59.949Z,84.55
2018-01-20T11:47:40.372Z,84.55
2018-01-20T11:48:20.810Z,83.78
2018-01-20T11:49:01.216Z,83.59
2018-01-20T11:49:41.644Z,84.83
2018-01-20T11:50:22.036Z,84.64
2018-01-20T11:51:02.390Z,84.45
2018-01-20T11:51:42.798Z,83.78
2018-01-20T11:52:23.167Z,84.17
2018-01-20T11:53:03.616Z,85.11
2018-01-20T11:53:44.012Z,83.59
2018-01-20T11:54:24.453Z,83.69
2018-01-20T11:55:04.823Z,83.69
2018-01-20T11:55:45.202Z,83.59
2018-01-20T11:56:25.625Z,84.64
2018-01-20T11:57:05.973Z,84.55
2018-01-20T11:57:46.409Z,85.3
2018-01-20T11:58:26.815Z,85.78
2018-01-20T11:59:07.298Z,85.97
2018-01-20T11:59:47.648Z,86.07
2018-01-20T12:00:28.090Z,85.97
2018-01-20T12:01:08.505Z,86.07
2018-01-20T12:01:48.836Z,85.87
2018-01-20T12:02:29.247Z,85.97
2018-01-20T12:03:09.631Z,86.44
2018-01-20T12:03:50.012Z,86.91
2018-01-20T12:04:30.427Z,86.54
2018-01-20T12:05:10.855Z,86.16
2018-01-20T12:05:51.268Z,85.97
2018-01-20T12:06:31.699Z,85.87
2018-01-20T12:07:12.100Z,86.25
2018-01-20T12:07:52.443Z,86.16
2018-01-20T12:08:32.883Z,85.59
2018-01-20T12:09:13.265Z,86.16
2018-01-20T12:09:53.695Z,86.35
2018-01-20T12:10:34.079Z,86.82
2018-01-20T12:11:14.516Z,86.72
2018-01-20T12:11:54.885Z,87.11
2018-01-20T12:12:35.289Z,86.91
2018-01-20T12:13:15.742Z,86.82
2018-01-20T12:13:56.069Z,87.2
2018-01-20T12:14:36.442Z,86.82
2018-01-20T12:15:16.907Z,86.91
2018-01-20T12:15:57.240Z,87.01
2018-01-20T12:16:37.619Z,87.2
2018-01-20T12:17:18.010Z,87.77
2018-01-20T12:17:58.418Z,87.2
2018-01-20T12:18:38.862Z,87.2
2018-01-20T12:20:27.234Z,86.07
2018-01-20T12:21:07.674Z,86.25
2018-01-20T12:21:48.056Z,86.59
2018-01-20T12:22:28.469Z,87.11
2018-01-20T12:23:08.851Z,87.73
2018-01-20T12:25:02.786Z,87.39
2018-01-20T12:25:43.014Z,87.87
2018-01-20T12:26:23.451Z,88.62
2018-01-20T12:27:03.816Z,88.29
2018-01-20T12:27:44.218Z,86.97
2018-01-20T12:28:24.652Z,86.68
2018-01-20T12:29:05.007Z,87.35
2018-01-20T12:29:45.349Z,87.06
2018-01-20T12:30:25.778Z,86.97
2018-01-20T12:31:06.182Z,87.35
2018-01-20T12:31:46.519Z,88.1
2018-01-20T12:32:26.995Z,87.63
2018-01-20T12:33:07.376Z,88.48
2018-01-20T12:33:47.830Z,88.48
2018-01-20T12:34:28.230Z,88.48
2018-01-20T12:35:08.621Z,88.2
2018-01-20T12:35:49.042Z,88.01
2018-01-20T12:36:29.484Z,88.29
2018-01-20T12:37:09.797Z,88.96
2018-01-20T12:37:50.191Z,88.96
2018-01-20T12:38:30.619Z,89.43
2018-01-20T12:39:11.012Z,89.72
2018-01-20T12:39:51.375Z,89.81
2018-01-20T12:40:31.767Z,89.62
2018-01-20T12:41:12.150Z,89.91
2018-01-20T12:41:52.534Z,90.48
2018-01-20T12:42:32.990Z,90.57
2018-01-20T12:43:13.393Z,90.76
2018-01-20T12:43:53.830Z,90.91
2018-01-20T12:44:34.166Z,91.71
2018-01-20T12:45:14.514Z,91.71
2018-01-20T12:45:54.907Z,91.14
2018-01-20T12:46:35.343Z,91.66
2018-01-20T12:47:15.741Z,91.66
2018-01-20T12:47:56.072Z,91.61
2018-01-20T12:48:36.550Z,91.47
2018-01-20T12:49:16.920Z,91.8
2018-01-20T12:49:57.351Z,91.61
2018-01-20T12:50:37.803Z,91.28
2018-01-20T12:51:18.203Z,91.57
2018-01-20T12:51:58.594Z,91.38
2018-01-20T12:52:38.927Z,91.38
2018-01-20T12:53:19.397Z,92.14
2018-01-20T12:53:59.755Z,92.33
2018-01-20T12:54:40.211Z,92.61
2018-01-20T12:55:20.616Z,92.33
2018-01-20T12:56:01.027Z,92.14
2018-01-20T12:56:41.403Z,92.52
2018-01-20T12:57:21.766Z,92.52
2018-01-20T12:58:02.236Z,92.8
2018-01-20T12:58:42.615Z,93.46
2018-01-20T12:59:23.009Z,93.7
2018-01-20T13:00:03.378Z,93.51
2018-01-20T13:00:43.743Z,92.57
2018-01-20T13:01:24.136Z,92.66
2018-01-20T13:02:04.547Z,92.57
2018-01-20T13:02:44.941Z,92.28
2018-01-20T13:03:25.379Z,91.99
2018-01-20T13:04:05.761Z,92.47
2018-01-20T13:04:46.233Z,92.38
2018-01-20T13:05:26.637Z,92.76
2018-01-20T13:06:07.043Z,91.66
2018-01-20T13:06:47.402Z,91.38
2018-01-20T13:07:27.760Z,91.19
2018-01-20T13:08:08.169Z,91.33
2018-01-20T13:08:48.619Z,91.38
2018-01-20T13:09:28.993Z,91.38
2018-01-20T13:10:09.382Z,91.66
2018-01-20T13:10:49.741Z,91.95
2018-01-20T13:11:30.118Z,92.38
2018-01-20T13:12:10.540Z,92.8
2018-01-20T13:12:50.960Z,92.61
2018-01-20T13:13:31.317Z,91.38
2018-01-20T13:14:11.741Z,91.47
2018-01-20T13:14:52.131Z,91.95
2018-01-20T13:15:32.506Z,91.47
2018-01-20T13:16:12.902Z,92.33
2018-01-20T13:16:53.291Z,92.42
2018-01-20T13:17:33.715Z,92.99
2018-01-20T13:18:14.113Z,92.42
2018-01-20T13:18:54.507Z,92.71
2018-01-20T13:19:34.956Z,92.52
2018-01-20T13:20:15.322Z,92.71
2018-01-20T13:20:55.679Z,93.08
2018-01-20T13:21:36.073Z,93.46
2018-01-20T13:22:16.514Z,92.99
2018-01-20T13:22:56.893Z,93.18
2018-01-20T13:23:37.278Z,92.9
2018-01-20T13:24:17.717Z,93.37
2018-01-20T13:24:58.089Z,93.46
2018-01-20T13:25:38.464Z,93.27
2018-01-20T13:26:18.827Z,93.56
2018-01-20T13:26:59.235Z,93.84
2018-01-20T13:27:39.636Z,93.27
2018-01-20T13:28:20.033Z,93.46
2018-01-20T13:29:00.385Z,93.08
2018-01-20T13:29:40.866Z,93.18
2018-01-20T13:30:21.288Z,93.84
2018-01-20T13:31:01.702Z,93.37
2018-01-20T13:31:42.058Z,93.27
2018-01-20T13:32:22.483Z,93.56
2018-01-20T13:33:02.886Z,93.84
2018-01-20T13:33:43.244Z,93.56
2018-01-20T13:34:23.657Z,94.13
2018-01-20T13:35:04.037Z,94.04
2018-01-20T13:35:44.565Z,94.42
2018-01-20T13:36:25.043Z,94.04
2018-01-20T13:37:05.419Z,93.84
2018-01-20T13:37:45.791Z,94.13
2018-01-20T13:38:26.155Z,93.84
2018-01-20T13:39:06.571Z,93.56
2018-01-20T13:39:46.937Z,94.23
2018-01-20T13:40:27.342Z,93.75
2018-01-20T13:41:07.827Z,92.71
2018-01-20T13:41:48.296Z,92.9
2018-01-20T13:42:28.652Z,93.18
2018-01-20T13:43:09.049Z,93.37
2018-01-20T13:43:49.509Z,92.9
2018-01-20T13:44:29.927Z,92.71
2018-01-20T13:45:10.296Z,93.08
2018-01-20T13:45:50.725Z,93.46
2018-01-20T13:46:31.131Z,92.9
2018-01-20T13:47:11.605Z,92.61
2018-01-20T13:47:52.009Z,92.33
2018-01-20T13:48:32.399Z,91.95
2018-01-20T13:49:12.799Z,91.95
2018-01-20T13:49:53.227Z,92.8
2018-01-20T13:50:33.651Z,92.52
2018-01-20T13:51:14.027Z,93.08
2018-01-20T13:51:54.419Z,92.14
2018-01-20T13:52:34.919Z,92.61
2018-01-20T13:53:15.250Z,92.9
2018-01-20T13:53:55.726Z,92.61
2018-01-20T13:54:36.151Z,92.8
2018-01-20T13:55:16.479Z,93.18
2018-01-20T13:55:56.856Z,92.99
2018-01-20T13:56:37.308Z,93.84
2018-01-20T13:57:17.743Z,93.84
2018-01-20T13:57:58.095Z,94.13
2018-01-20T13:58:38.478Z,93.84
2018-01-20T13:59:18.839Z,93.94
2018-01-20T13:59:59.279Z,93.84
2018-01-20T14:00:39.716Z,93.65